Time;durP1;ratioP1;P1;durP2;ratioP2;P2;SDS_P1;SDS_P2;PMS_P1;PMS_P2;Temp;Humidity;BMP_temperature;BMP_pressure;BME280_temperature;BME280_humidity;BME280_pressure;Samples;Min_cycle;Max_cycle;Signal;HPM_P1;HPM_P2
2021/08/07 00:00:05;;;;;;;3.90;1.33;;;;;;;;;;4979494;28;20121;-77
2021/08/07 00:02:30;;;;;;;3.40;1.25;;;;;;;;;;4979398;28;20113;-77
2021/08/07 00:04:55;;;;;;;4.10;1.30;;;;;;;;;;4979742;28;20501;-77
2021/08/07 00:07:23;;;;;;;2.87;1.10;;;;;;;;;;4979546;28;20062;-77
2021/08/07 00:09:48;;;;;;;3.58;1.30;;;;;;;;;;4963821;28;20033;-77
2021/08/07 00:12:13;;;;;;;2.80;1.10;;;;;;;;;;4979325;28;20460;-77
2021/08/07 00:14:39;;;;;;;2.67;1.10;;;;;;;;;;4995689;28;20050;-77
2021/08/07 00:17:04;;;;;;;3.07;1.20;;;;;;;;;;4979461;28;20118;-77
2021/08/07 00:19:30;;;;;;;4.07;1.13;;;;;;;;;;4979296;28;20054;-77
2021/08/07 00:21:55;;;;;;;2.67;1.10;;;;;;;;;;4979408;28;20030;-77
2021/08/07 00:24:21;;;;;;;3.90;1.30;;;;;;;;;;4962918;28;20081;-78
2021/08/07 00:26:46;;;;;;;3.23;1.00;;;;;;;;;;4979156;28;20157;-77
2021/08/07 00:29:11;;;;;;;3.00;1.10;;;;;;;;;;4963269;28;20110;-77
2021/08/07 00:31:37;;;;;;;3.03;1.10;;;;;;;;;;4979568;28;20054;-77
2021/08/07 00:34:02;;;;;;;2.83;1.20;;;;;;;;;;4996923;28;20540;-77
2021/08/07 00:36:27;;;;;;;2.87;1.07;;;;;;;;;;4979275;28;20053;-78
2021/08/07 00:38:53;;;;;;;3.03;1.10;;;;;;;;;;4963295;28;20018;-78
2021/08/07 00:41:18;;;;;;;4.10;1.43;;;;;;;;;;4996046;28;20112;-78
2021/08/07 00:43:43;;;;;;;3.60;1.33;;;;;;;;;;4979398;28;20069;-78
2021/08/07 00:46:09;;;;;;;2.67;1.10;;;;;;;;;;4995322;28;20030;-77
2021/08/07 00:48:34;;;;;;;3.07;1.20;;;;;;;;;;4995595;28;20022;-77
2021/08/07 00:51:00;;;;;;;3.43;1.20;;;;;;;;;;4979747;28;20490;-78
2021/08/07 00:53:25;;;;;;;2.87;1.20;;;;;;;;;;4979349;28;20510;-77
2021/08/07 00:55:50;;;;;;;2.83;1.20;;;;;;;;;;4978833;28;20521;-77
2021/08/07 00:58:16;;;;;;;3.37;0.83;;;;;;;;;;4995173;28;20019;-77
2021/08/07 01:00:43;;;;;;;2.90;1.17;;;;;;;;;;4995268;28;20030;-78
2021/08/07 01:03:13;;;;;;;3.25;1.40;;;;;;;;;;4963912;28;20029;-78
2021/08/07 01:06:04;;;;;;;3.00;1.00;;;;;;;;;;4979248;28;20030;-78
2021/08/07 01:08:33;;;;;;;2.30;1.10;;;;;;;;;;4977769;28;20136;-78
2021/08/07 01:11:12;;;;;;;3.78;1.20;;;;;;;;;;4978931;28;20023;-78
2021/08/07 01:13:48;;;;;;;3.38;1.13;;;;;;;;;;4979221;28;20161;-78
2021/08/07 01:16:22;;;;;;;2.75;1.20;;;;;;;;;;4995880;28;20031;-78
2021/08/07 01:18:47;;;;;;;4.07;1.15;;;;;;;;;;4962902;28;20019;-78
2021/08/07 01:21:15;;;;;;;2.37;1.10;;;;;;;;;;4962918;28;20058;-78
2021/08/07 01:23:47;;;;;;;3.08;1.23;;;;;;;;;;4979139;28;20030;-78
2021/08/07 01:26:18;;;;;;;3.40;1.23;;;;;;;;;;4995614;28;20028;-78
2021/08/07 01:28:44;;;;;;;2.28;1.00;;;;;;;;;;4995130;28;20026;-78
2021/08/07 01:31:10;;;;;;;2.57;1.10;;;;;;;;;;4979177;28;20076;-78
2021/08/07 01:33:36;;;;;;;2.97;1.05;;;;;;;;;;4994989;28;20361;-78
2021/08/07 01:36:03;;;;;;;2.97;1.17;;;;;;;;;;4996982;28;20066;-78
2021/08/07 01:38:29;;;;;;;3.40;1.13;;;;;;;;;;4981421;28;20109;-78
2021/08/07 01:40:54;;;;;;;3.28;1.02;;;;;;;;;;4965034;28;20022;-78
2021/08/07 01:43:20;;;;;;;2.30;0.93;;;;;;;;;;4981026;28;20498;-78
2021/08/07 01:45:45;;;;;;;4.30;1.30;;;;;;;;;;4997150;28;20029;-78
2021/08/07 01:48:14;;;;;;;2.67;1.10;;;;;;;;;;4964497;28;20433;-78
2021/08/07 01:50:44;;;;;;;2.75;1.17;;;;;;;;;;4997782;28;20101;-78
2021/08/07 01:53:12;;;;;;;3.60;1.33;;;;;;;;;;4980555;28;20125;-78
2021/08/07 01:55:48;;;;;;;3.65;1.33;;;;;;;;;;4997401;28;20041;-78
2021/08/07 01:58:24;;;;;;;3.28;1.38;;;;;;;;;;4995109;28;20050;-78
2021/08/07 02:00:50;;;;;;;2.90;1.30;;;;;;;;;;4965673;28;20054;-78
2021/08/07 02:03:15;;;;;;;3.47;1.10;;;;;;;;;;4980572;28;20559;-78
2021/08/07 02:05:41;;;;;;;3.60;1.10;;;;;;;;;;4980734;28;20050;-78
2021/08/07 02:08:07;;;;;;;3.65;1.40;;;;;;;;;;4980731;28;20038;-78
2021/08/07 02:10:32;;;;;;;2.60;1.15;;;;;;;;;;4996958;28;20026;-78
2021/08/07 02:12:58;;;;;;;2.60;0.90;;;;;;;;;;4980434;28;20517;-78
2021/08/07 02:15:23;;;;;;;2.90;0.90;;;;;;;;;;4996548;28;20454;-78
2021/08/07 02:17:48;;;;;;;3.67;1.20;;;;;;;;;;4982460;28;20031;-78
2021/08/07 02:20:14;;;;;;;2.63;1.17;;;;;;;;;;4984993;28;20027;-78
2021/08/07 02:22:41;;;;;;;4.30;1.40;;;;;;;;;;4984226;28;20124;-78
2021/08/07 02:25:07;;;;;;;3.40;1.10;;;;;;;;;;4984371;28;20120;-78
2021/08/07 02:27:32;;;;;;;3.30;1.10;;;;;;;;;;5000736;28;20034;-78
2021/08/07 02:29:58;;;;;;;3.13;1.20;;;;;;;;;;4967790;28;20482;-78
2021/08/07 02:32:23;;;;;;;3.37;1.30;;;;;;;;;;4984056;28;20180;-78
2021/08/07 02:34:48;;;;;;;2.73;1.10;;;;;;;;;;5000224;28;20057;-78
2021/08/07 02:37:14;;;;;;;2.33;1.10;;;;;;;;;;4984040;28;20449;-78
2021/08/07 02:39:39;;;;;;;2.43;0.93;;;;;;;;;;4968033;28;20065;-78
2021/08/07 02:42:05;;;;;;;2.83;1.13;;;;;;;;;;4984725;28;20597;-78
2021/08/07 02:44:30;;;;;;;2.97;1.20;;;;;;;;;;4967774;28;20105;-78
2021/08/07 02:46:56;;;;;;;3.30;1.17;;;;;;;;;;4983512;28;20057;-78
2021/08/07 02:49:21;;;;;;;2.77;1.10;;;;;;;;;;5000043;28;20142;-78
2021/08/07 02:51:49;;;;;;;2.87;1.30;;;;;;;;;;4984028;28;20492;-78
2021/08/07 02:54:14;;;;;;;2.75;1.13;;;;;;;;;;5000606;28;20033;-78
2021/08/07 02:56:40;;;;;;;2.73;1.07;;;;;;;;;;4984218;28;20433;-78
2021/08/07 02:59:05;;;;;;;3.43;1.20;;;;;;;;;;4999851;28;20045;-78
2021/08/07 03:01:30;;;;;;;2.60;1.20;;;;;;;;;;4999724;28;20088;-78
2021/08/07 03:03:56;;;;;;;3.50;1.20;;;;;;;;;;4984091;28;20061;-78
2021/08/07 03:06:24;;;;;;;2.30;0.90;;;;;;;;;;4983471;28;20120;-78
2021/08/07 03:08:49;;;;;;;3.45;1.20;;;;;;;;;;4983745;28;20046;-78
2021/08/07 03:11:15;;;;;;;3.47;1.30;;;;;;;;;;5000093;28;20068;-78
2021/08/07 03:13:40;;;;;;;2.43;1.00;;;;;;;;;;4999575;28;20050;-78
2021/08/07 03:16:07;;;;;;;2.90;1.20;;;;;;;;;;4983676;28;20050;-78
2021/08/07 03:18:32;;;;;;;3.33;1.13;;;;;;;;;;5000130;28;20034;-78
2021/08/07 03:20:57;;;;;;;3.40;1.20;;;;;;;;;;4999887;28;20387;-78
2021/08/07 03:23:23;;;;;;;3.07;1.13;;;;;;;;;;4965951;28;20117;-78
2021/08/07 03:25:48;;;;;;;2.70;1.13;;;;;;;;;;4982126;28;20034;-78
2021/08/07 03:28:14;;;;;;;3.60;1.33;;;;;;;;;;4981329;28;20060;-78
2021/08/07 03:30:39;;;;;;;3.10;1.20;;;;;;;;;;4981008;28;20482;-78
2021/08/07 03:33:04;;;;;;;2.67;1.10;;;;;;;;;;4965288;28;20138;-78
2021/08/07 03:35:30;;;;;;;3.83;1.20;;;;;;;;;;4981486;28;20034;-78
2021/08/07 03:37:55;;;;;;;3.10;1.30;;;;;;;;;;4979561;28;20494;-75
2021/08/07 03:40:20;;;;;;;3.10;1.20;;;;;;;;;;4995005;28;20061;-75
2021/08/07 03:42:46;;;;;;;3.63;1.17;;;;;;;;;;4978630;28;20202;-75
2021/08/07 03:45:11;;;;;;;2.87;1.17;;;;;;;;;;4994913;28;20165;-75
2021/08/07 03:47:44;;;;;;;3.33;1.30;;;;;;;;;;4978661;28;20508;-75
2021/08/07 03:50:10;;;;;;;3.25;1.20;;;;;;;;;;4962716;28;20520;-75
2021/08/07 03:52:35;;;;;;;2.70;1.20;;;;;;;;;;4962366;28;20030;-75
2021/08/07 03:55:00;;;;;;;2.53;1.10;;;;;;;;;;4978437;28;20465;-75
2021/08/07 03:57:26;;;;;;;2.60;1.00;;;;;;;;;;4978462;28;20084;-76
2021/08/07 03:59:51;;;;;;;3.43;1.23;;;;;;;;;;4978539;28;20153;-75
2021/08/07 04:02:16;;;;;;;3.53;1.40;;;;;;;;;;4978365;28;20161;-75
2021/08/07 04:04:42;;;;;;;2.53;1.20;;;;;;;;;;4978336;28;20118;-75
2021/08/07 04:07:07;;;;;;;2.90;1.30;;;;;;;;;;4994600;28;20113;-75
2021/08/07 04:09:32;;;;;;;2.57;1.00;;;;;;;;;;4962485;28;20113;-75
2021/08/07 04:11:58;;;;;;;3.13;1.20;;;;;;;;;;4994954;28;20101;-76
2021/08/07 04:14:23;;;;;;;2.23;1.07;;;;;;;;;;4978053;28;20437;-75
2021/08/07 04:16:48;;;;;;;3.00;1.10;;;;;;;;;;4961994;28;20117;-75
2021/08/07 04:19:14;;;;;;;4.33;1.20;;;;;;;;;;4994290;28;20105;-75
2021/08/07 04:21:39;;;;;;;2.60;1.07;;;;;;;;;;4994545;28;20068;-75
2021/08/07 04:24:04;;;;;;;2.50;1.00;;;;;;;;;;4977961;28;20169;-75
2021/08/07 04:26:30;;;;;;;3.13;1.27;;;;;;;;;;4994246;28;20102;-75
2021/08/07 04:28:55;;;;;;;2.63;1.20;;;;;;;;;;4977773;28;20093;-75
2021/08/07 04:31:20;;;;;;;3.23;1.20;;;;;;;;;;4977749;28;20105;-75
2021/08/07 04:33:46;;;;;;;2.27;1.00;;;;;;;;;;4977841;28;20109;-75
2021/08/07 04:36:11;;;;;;;3.00;1.20;;;;;;;;;;4994016;28;20073;-75
2021/08/07 04:38:36;;;;;;;2.93;1.17;;;;;;;;;;4961553;28;20109;-75
2021/08/07 04:41:02;;;;;;;3.47;1.20;;;;;;;;;;4977311;28;20552;-75
2021/08/07 04:43:28;;;;;;;2.93;1.20;;;;;;;;;;4977531;28;20486;-75
2021/08/07 04:45:54;;;;;;;4.03;1.20;;;;;;;;;;4993979;28;20492;-75
2021/08/07 04:48:19;;;;;;;2.77;1.10;;;;;;;;;;4977351;28;20117;-75
2021/08/07 04:50:44;;;;;;;2.67;1.13;;;;;;;;;;4993717;28;20113;-75
2021/08/07 04:53:10;;;;;;;3.13;1.30;;;;;;;;;;4977398;28;20041;-75
2021/08/07 04:55:35;;;;;;;2.80;1.20;;;;;;;;;;4977439;28;20165;-75
2021/08/07 04:58:00;;;;;;;3.80;1.50;;;;;;;;;;4993716;28;20109;-75
2021/08/07 05:00:26;;;;;;;3.57;1.40;;;;;;;;;;4961129;28;20126;-75
2021/08/07 05:02:51;;;;;;;2.70;1.10;;;;;;;;;;4977218;28;20085;-75
2021/08/07 05:05:16;;;;;;;2.83;1.20;;;;;;;;;;4977202;28;20112;-75
2021/08/07 05:07:42;;;;;;;2.03;1.03;;;;;;;;;;4976964;28;20077;-75
2021/08/07 05:10:08;;;;;;;2.73;1.20;;;;;;;;;;4993422;28;20026;-75
2021/08/07 05:12:34;;;;;;;2.67;1.10;;;;;;;;;;4976859;28;20272;-75
2021/08/07 05:14:59;;;;;;;3.33;1.30;;;;;;;;;;4976939;28;20038;-75
2021/08/07 05:17:25;;;;;;;2.90;1.20;;;;;;;;;;4977212;28;20360;-75
2021/08/07 05:19:51;;;;;;;4.00;1.25;;;;;;;;;;4977033;28;20395;-75
2021/08/07 05:22:17;;;;;;;3.63;1.50;;;;;;;;;;4993124;28;20109;-75
2021/08/07 05:24:42;;;;;;;2.93;1.20;;;;;;;;;;4976843;28;20542;-75
2021/08/07 05:27:07;;;;;;;3.57;1.30;;;;;;;;;;4976806;28;20026;-75
2021/08/07 05:29:33;;;;;;;2.80;1.17;;;;;;;;;;4960592;28;20096;-75
2021/08/07 05:31:58;;;;;;;2.50;1.00;;;;;;;;;;4977719;28;20541;-75
2021/08/07 05:34:23;;;;;;;3.93;1.30;;;;;;;;;;4976605;28;20117;-75
2021/08/07 05:36:49;;;;;;;2.70;1.13;;;;;;;;;;4976663;28;20121;-75
2021/08/07 05:39:14;;;;;;;3.67;1.43;;;;;;;;;;4976681;28;20113;-75
2021/08/07 05:41:39;;;;;;;2.87;1.40;;;;;;;;;;4960536;28;20104;-75
2021/08/07 05:44:05;;;;;;;2.77;1.17;;;;;;;;;;4976609;28;20449;-75
2021/08/07 05:46:30;;;;;;;4.17;1.50;;;;;;;;;;4976512;28;20499;-75
2021/08/07 05:48:56;;;;;;;3.63;1.60;;;;;;;;;;4976505;28;20110;-75
2021/08/07 05:51:22;;;;;;;;;;;;;;;;;;4993003;28;20392;-75
2021/08/07 05:53:47;;;;;;;3.73;1.30;;;;;;;;;;4992468;28;19910;-75
2021/08/07 05:56:12;;;;;;;2.83;1.40;;;;;;;;;;4976519;28;20640;-75
2021/08/07 05:58:38;;;;;;;2.77;1.20;;;;;;;;;;4960278;28;20662;-75
2021/08/07 06:01:06;;;;;;;3.80;1.37;;;;;;;;;;4976374;28;20168;-75
2021/08/07 06:03:32;;;;;;;2.63;1.30;;;;;;;;;;4992359;28;20481;-75
2021/08/07 06:05:58;;;;;;;2.95;1.27;;;;;;;;;;4960450;28;20038;-75
2021/08/07 06:08:23;;;;;;;3.87;1.40;;;;;;;;;;4976113;28;20034;-75
2021/08/07 06:10:49;;;;;;;4.07;1.47;;;;;;;;;;4976245;28;20034;-75
2021/08/07 06:13:14;;;;;;;3.07;1.37;;;;;;;;;;4992369;28;20537;-75
2021/08/07 06:15:39;;;;;;;3.50;1.57;;;;;;;;;;4960095;28;20081;-75
2021/08/07 06:18:05;;;;;;;3.50;1.50;;;;;;;;;;4976367;28;20109;-75
2021/08/07 06:20:30;;;;;;;3.80;1.60;;;;;;;;;;4976104;28;20026;-75
2021/08/07 06:22:56;;;;;;;3.63;1.33;;;;;;;;;;4992425;28;20030;-75
2021/08/07 06:25:21;;;;;;;3.33;1.33;;;;;;;;;;4960058;28;20053;-75
2021/08/07 06:27:53;;;;;;;3.63;1.53;;;;;;;;;;4992429;28;20030;-75
2021/08/07 06:30:19;;;;;;;3.85;1.70;;;;;;;;;;4977133;28;20030;-75
2021/08/07 06:32:44;;;;;;;4.53;2.67;;;;;;;;;;4975929;28;20084;-75
2021/08/07 06:35:09;;;;;;;6.43;2.60;;;;;;;;;;4976029;28;20117;-75
2021/08/07 06:37:35;;;;;;;5.70;2.80;;;;;;;;;;4992428;28;20023;-76
2021/08/07 06:40:00;;;;;;;5.93;2.93;;;;;;;;;;4976160;28;20485;-75
2021/08/07 06:42:25;;;;;;;5.80;2.87;;;;;;;;;;4975882;28;20389;-75
2021/08/07 06:44:51;;;;;;;8.27;3.10;;;;;;;;;;4975975;28;20166;-76
2021/08/07 06:47:16;;;;;;;6.93;3.10;;;;;;;;;;4959910;28;20121;-76
2021/08/07 06:49:41;;;;;;;7.23;3.00;;;;;;;;;;4992104;28;20117;-76
2021/08/07 06:52:07;;;;;;;4.83;2.80;;;;;;;;;;4975931;28;20109;-75
2021/08/07 06:54:32;;;;;;;4.77;2.43;;;;;;;;;;4959723;28;20027;-75
2021/08/07 06:56:58;;;;;;;5.57;2.20;;;;;;;;;;4975851;28;20038;-75
2021/08/07 06:59:23;;;;;;;4.43;2.00;;;;;;;;;;4992023;28;20482;-76
2021/08/07 07:01:49;;;;;;;3.73;2.03;;;;;;;;;;4975995;28;20109;-76
2021/08/07 07:04:15;;;;;;;4.60;2.10;;;;;;;;;;4978241;28;20081;-76
2021/08/07 07:06:40;;;;;;;4.70;2.03;;;;;;;;;;4979230;28;20030;-76
2021/08/07 07:09:05;;;;;;;3.73;1.90;;;;;;;;;;4979368;28;20117;-77
2021/08/07 07:11:31;;;;;;;3.80;1.70;;;;;;;;;;4979171;28;20026;-77
2021/08/07 07:13:57;;;;;;;4.03;1.80;;;;;;;;;;4979310;28;20542;-77
2021/08/07 07:16:22;;;;;;;3.58;1.75;;;;;;;;;;4963607;28;20437;-77
2021/08/07 07:18:48;;;;;;;5.30;1.90;;;;;;;;;;4962961;28;20018;-77
2021/08/07 07:21:13;;;;;;;5.63;2.23;;;;;;;;;;4979089;28;20113;-77
2021/08/07 07:23:38;;;;;;;5.33;1.90;;;;;;;;;;4979022;28;20378;-77
2021/08/07 07:26:04;;;;;;;3.93;1.90;;;;;;;;;;4995384;28;20105;-77
2021/08/07 07:28:29;;;;;;;4.33;2.07;;;;;;;;;;4978880;28;20113;-77
2021/08/07 07:30:54;;;;;;;4.43;1.93;;;;;;;;;;4978874;28;20363;-77
2021/08/07 07:33:20;;;;;;;6.10;2.00;;;;;;;;;;4995048;28;20117;-77
2021/08/07 07:35:45;;;;;;;7.23;2.00;;;;;;;;;;4979163;28;20033;-79
2021/08/07 07:38:11;;;;;;;5.77;2.13;;;;;;;;;;4979733;28;20109;-79
2021/08/07 07:40:36;;;;;;;5.37;2.30;;;;;;;;;;4979771;28;20388;-79
2021/08/07 07:43:01;;;;;;;6.60;2.10;;;;;;;;;;4963901;28;20033;-79
2021/08/07 07:45:27;;;;;;;3.60;1.90;;;;;;;;;;4975627;28;20026;-78
2021/08/07 07:47:52;;;;;;;3.73;1.87;;;;;;;;;;4959746;28;20117;-78
2021/08/07 07:50:18;;;;;;;3.87;1.80;;;;;;;;;;4975472;28;20528;-78
2021/08/07 07:52:44;;;;;;;4.80;2.20;;;;;;;;;;4975409;28;20030;-78
2021/08/07 07:55:09;;;;;;;;;;;;;;;;;;4976201;28;20064;-78
2021/08/07 07:57:35;;;;;;;6.60;2.00;;;;;;;;;;4975480;28;20024;-78
2021/08/07 08:00:00;;;;;;;4.57;2.03;;;;;;;;;;4975538;28;20121;-78
2021/08/07 08:02:26;;;;;;;5.50;2.27;;;;;;;;;;4961669;28;20033;-78
2021/08/07 08:04:51;;;;;;;5.13;2.20;;;;;;;;;;4978538;28;20116;-77
2021/08/07 08:07:16;;;;;;;5.50;2.20;;;;;;;;;;4978143;28;20117;-77
2021/08/07 08:09:42;;;;;;;3.47;1.80;;;;;;;;;;4978463;28;20105;-76
2021/08/07 08:12:07;;;;;;;5.30;2.07;;;;;;;;;;4962160;28;20522;-77
2021/08/07 08:14:32;;;;;;;5.00;1.90;;;;;;;;;;4977881;28;20125;-76
2021/08/07 08:16:58;;;;;;;5.73;2.00;;;;;;;;;;4978151;28;20037;-77
2021/08/07 08:19:23;;;;;;;4.20;2.13;;;;;;;;;;4994480;28;20026;-78
2021/08/07 08:21:48;;;;;;;4.90;1.90;;;;;;;;;;4978010;28;20121;-77
2021/08/07 08:24:14;;;;;;;4.43;1.77;;;;;;;;;;4977810;28;20120;-77
2021/08/07 08:26:40;;;;;;;3.73;1.93;;;;;;;;;;4977903;28;20117;-77
2021/08/07 08:29:06;;;;;;;4.45;1.85;;;;;;;;;;4977885;28;20053;-77
2021/08/07 08:31:31;;;;;;;5.10;1.93;;;;;;;;;;4978571;28;20493;-78
2021/08/07 08:33:56;;;;;;;5.00;2.03;;;;;;;;;;4977758;28;20022;-77
2021/08/07 08:36:22;;;;;;;4.37;1.83;;;;;;;;;;4978248;28;20492;-77
2021/08/07 08:38:47;;;;;;;4.10;1.97;;;;;;;;;;4977769;28;20105;-77
2021/08/07 08:41:12;;;;;;;4.53;1.87;;;;;;;;;;4961638;28;20058;-77
2021/08/07 08:43:38;;;;;;;6.13;1.80;;;;;;;;;;4993921;28;20023;-78
2021/08/07 08:46:04;;;;;;;4.93;1.80;;;;;;;;;;4977591;28;20117;-77
2021/08/07 08:48:29;;;;;;;3.93;1.90;;;;;;;;;;4961356;28;20520;-77
2021/08/07 08:50:55;;;;;;;5.10;2.03;;;;;;;;;;4993736;28;20062;-77
2021/08/07 08:53:20;;;;;;;6.90;2.03;;;;;;;;;;4978015;28;20022;-77
2021/08/07 08:55:46;;;;;;;5.03;2.13;;;;;;;;;;4961263;28;20389;-77
2021/08/07 08:58:11;;;;;;;5.35;2.17;;;;;;;;;;4977220;28;20046;-77
2021/08/07 09:00:37;;;;;;;4.43;1.90;;;;;;;;;;4977284;28;20164;-77
2021/08/07 09:03:02;;;;;;;4.00;2.10;;;;;;;;;;4977225;28;20394;-77
2021/08/07 09:05:27;;;;;;;4.90;1.80;;;;;;;;;;4977300;28;20118;-77
2021/08/07 09:07:53;;;;;;;5.37;2.10;;;;;;;;;;4977037;28;20026;-78
2021/08/07 09:10:22;;;;;;;4.33;1.90;;;;;;;;;;4993425;28;20037;-77
2021/08/07 09:12:51;;;;;;;4.93;1.90;;;;;;;;;;4976902;28;20105;-77
2021/08/07 09:15:36;;;;;;;3.72;1.90;;;;;;;;;;4977182;28;20033;-77
2021/08/07 09:18:11;;;;;;;4.57;1.90;;;;;;;;;;4977303;28;20367;-77
2021/08/07 09:20:37;;;;;;;5.22;2.10;;;;;;;;;;4994346;28;20033;-77
2021/08/07 09:23:02;;;;;;;4.50;2.10;;;;;;;;;;4977143;28;20023;-77
2021/08/07 09:25:33;;;;;;;4.13;2.00;;;;;;;;;;5003048;23;20052;-77
2021/08/07 09:27:58;;;;;;;4.03;1.95;;;;;;;;;;5009912;28;20042;-77
2021/08/07 09:30:29;;;;;;;3.83;2.07;;;;;;;;;;4993994;28;20464;-77
2021/08/07 09:33:08;;;;;;;4.50;2.28;;;;;;;;;;4996506;28;20125;-77
2021/08/07 09:35:51;;;;;;;5.07;2.00;;;;;;;;;;5027949;28;20026;-77
2021/08/07 09:38:25;;;;;;;3.95;1.90;;;;;;;;;;5013925;28;20026;-77
2021/08/07 09:40:55;;;;;;;3.65;1.95;;;;;;;;;;5001268;28;20534;-77
2021/08/07 09:43:22;;;;;;;3.78;1.85;;;;;;;;;;5008200;28;20161;-78
2021/08/07 09:46:06;;;;;;;4.72;1.98;;;;;;;;;;5007706;28;20174;-78
2021/08/07 09:48:34;;;;;;;3.92;1.77;;;;;;;;;;5002557;28;20030;-78
2021/08/07 09:51:00;;;;;;;4.18;1.88;;;;;;;;;;4996805;28;20034;-78
2021/08/07 09:53:28;;;;;;;;;;;;;;;;;;4991967;28;20054;-78
2021/08/07 09:56:00;;;;;;;5.10;1.92;;;;;;;;;;5006895;28;20277;-78
2021/08/07 09:58:25;;;;;;;3.95;1.67;;;;;;;;;;4990280;28;20133;-78
2021/08/07 10:00:51;;;;;;;4.20;1.90;;;;;;;;;;4989215;28;20522;-77
2021/08/07 10:03:18;;;;;;;5.97;2.07;;;;;;;;;;4989698;28;20409;-77
2021/08/07 10:05:44;;;;;;;4.55;1.77;;;;;;;;;;5006115;28;20474;-77
2021/08/07 10:08:11;;;;;;;;;;;;;;;;;;4998261;28;20481;-77
2021/08/07 10:10:36;;;;;;;4.28;1.65;;;;;;;;;;5005298;28;20365;-77
2021/08/07 10:13:01;;;;;;;6.33;1.97;;;;;;;;;;5012194;28;20030;-77
2021/08/07 10:15:27;;;;;;;5.43;2.30;;;;;;;;;;4978092;28;20532;-77
2021/08/07 10:17:54;;;;;;;4.23;1.90;;;;;;;;;;5008893;28;20109;-77
2021/08/07 10:20:19;;;;;;;5.50;1.90;;;;;;;;;;4992628;28;20478;-77
2021/08/07 10:22:45;;;;;;;3.87;1.87;;;;;;;;;;4976129;28;20109;-77
2021/08/07 10:25:11;;;;;;;4.10;1.80;;;;;;;;;;4976069;28;20113;-77
2021/08/07 10:27:36;;;;;;;3.90;1.90;;;;;;;;;;4978501;28;20026;-77
2021/08/07 10:30:03;;;;;;;4.97;1.90;;;;;;;;;;5011999;28;20500;-77
2021/08/07 10:32:28;;;;;;;3.67;1.60;;;;;;;;;;4995662;28;20030;-76
2021/08/07 10:34:54;;;;;;;3.90;1.73;;;;;;;;;;4975201;28;20044;-77
2021/08/07 10:37:19;;;;;;;3.40;1.80;;;;;;;;;;5028327;28;20130;-77
2021/08/07 10:39:45;;;;;;;3.40;1.80;;;;;;;;;;5031683;28;20079;-77
2021/08/07 10:42:11;;;;;;;4.07;1.80;;;;;;;;;;5015905;28;20071;-77
2021/08/07 10:44:36;;;;;;;6.20;2.15;;;;;;;;;;5006905;28;20025;-77
2021/08/07 10:47:02;;;;;;;5.23;2.10;;;;;;;;;;5032153;28;20045;-77
2021/08/07 10:49:35;;;;;;;6.07;2.23;;;;;;;;;;5014363;28;20032;-77
2021/08/07 10:52:00;;;;;;;4.80;2.00;;;;;;;;;;5015361;28;20378;-77
2021/08/07 10:54:25;;;;;;;3.83;1.90;;;;;;;;;;5005453;28;20121;-77
2021/08/07 10:56:51;;;;;;;3.70;1.97;;;;;;;;;;4993852;28;20046;-78
2021/08/07 10:59:18;;;;;;;5.60;2.30;;;;;;;;;;4961818;28;20027;-77
2021/08/07 11:01:44;;;;;;;3.45;1.90;;;;;;;;;;4961328;28;20050;-77
2021/08/07 11:04:17;;;;;;;3.92;1.77;;;;;;;;;;4978903;28;20036;-77
2021/08/07 11:06:42;;;;;;;3.28;1.70;;;;;;;;;;5025846;28;20441;-77
2021/08/07 11:09:28;;;;;;;3.73;1.70;;;;;;;;;;5016286;28;20105;-77
2021/08/07 11:12:05;;;;;;;5.32;2.00;;;;;;;;;;4991985;28;20361;-77
2021/08/07 11:14:33;;;;;;;3.20;1.60;;;;;;;;;;5014005;28;20034;-77
2021/08/07 11:17:05;;;;;;;2.88;1.63;;;;;;;;;;5015529;28;20053;-77
2021/08/07 11:19:46;;;;;;;3.35;1.63;;;;;;;;;;5015265;28;20101;-77
2021/08/07 11:22:12;;;;;;;3.28;1.70;;;;;;;;;;5012548;28;20180;-77
2021/08/07 11:24:43;;;;;;;3.53;1.53;;;;;;;;;;4995908;28;20038;-77
2021/08/07 11:27:09;;;;;;;3.47;1.70;;;;;;;;;;4996512;28;20022;-77
2021/08/07 11:29:34;;;;;;;3.63;1.45;;;;;;;;;;4995404;28;20022;-77
2021/08/07 11:32:15;;;;;;;3.90;1.97;;;;;;;;;;4995616;28;20041;-77
2021/08/07 11:34:47;;;;;;;3.60;1.80;;;;;;;;;;4979470;28;20029;-77
2021/08/07 11:37:16;;;;;;;3.65;2.00;;;;;;;;;;5012232;28;20034;-77
2021/08/07 11:40:04;;;;;;;3.63;1.70;;;;;;;;;;4979329;28;20022;-77
2021/08/07 11:42:46;;;;;;;3.10;1.50;;;;;;;;;;4995390;28;20033;-77
2021/08/07 11:45:16;;;;;;;3.45;1.65;;;;;;;;;;4979279;28;20077;-77
2021/08/07 11:47:46;;;;;;;3.08;1.70;;;;;;;;;;4995372;28;20022;-77
2021/08/07 11:50:11;;;;;;;3.83;1.80;;;;;;;;;;4993505;28;20037;-77
2021/08/07 11:52:37;;;;;;;2.60;1.47;;;;;;;;;;4995140;28;20026;-77
2021/08/07 11:55:02;;;;;;;3.80;1.90;;;;;;;;;;4979153;28;20029;-77
2021/08/07 11:57:28;;;;;;;3.60;2.00;;;;;;;;;;4996026;28;20272;-77
2021/08/07 11:59:53;;;;;;;3.40;1.80;;;;;;;;;;4995235;28;20394;-77
2021/08/07 12:02:18;;;;;;;3.47;1.80;;;;;;;;;;4996600;28;20109;-77
2021/08/07 12:04:44;;;;;;;3.93;1.67;;;;;;;;;;5013670;28;20138;-77
2021/08/07 12:07:15;;;;;;;3.67;1.63;;;;;;;;;;5015051;28;20026;-77
2021/08/07 12:10:03;;;;;;;3.22;1.70;;;;;;;;;;5014787;28;20157;-78
2021/08/07 12:12:29;;;;;;;4.63;2.13;;;;;;;;;;5013628;28;20056;-77
2021/08/07 12:14:54;;;;;;;5.10;1.93;;;;;;;;;;5012389;28;20564;-76
2021/08/07 12:17:19;;;;;;;6.17;2.40;;;;;;;;;;5014088;28;20433;-76
2021/08/07 12:19:45;;;;;;;4.20;1.90;;;;;;;;;;4997536;28;20049;-76
2021/08/07 12:22:10;;;;;;;3.80;1.90;;;;;;;;;;4995709;28;20125;-77
2021/08/07 12:24:35;;;;;;;5.47;1.90;;;;;;;;;;4977408;28;20113;-77
2021/08/07 12:27:01;;;;;;;2.97;1.57;;;;;;;;;;4958972;28;20121;-76
2021/08/07 12:29:27;;;;;;;5.77;1.77;;;;;;;;;;4973276;28;20030;-76
2021/08/07 12:31:56;;;;;;;4.95;1.98;;;;;;;;;;4995333;28;20029;-77
2021/08/07 12:34:25;;;;;;;4.97;1.90;;;;;;;;;;5007053;28;20039;-77
2021/08/07 12:36:55;;;;;;;5.15;1.80;;;;;;;;;;4976073;28;20035;-76
2021/08/07 12:39:20;;;;;;;6.18;1.98;;;;;;;;;;4990816;28;20027;-77
2021/08/07 12:41:46;;;;;;;7.27;2.20;;;;;;;;;;4990732;28;20154;-77
2021/08/07 12:44:21;;;;;;;4.50;1.90;;;;;;;;;;4991492;28;20125;-76
2021/08/07 12:46:48;;;;;;;3.92;1.90;;;;;;;;;;5002760;28;20108;-77
2021/08/07 12:49:13;;;;;;;4.63;1.85;;;;;;;;;;5011597;28;20025;-76
2021/08/07 12:51:38;;;;;;;4.03;1.83;;;;;;;;;;4997048;28;20064;-77
2021/08/07 12:54:14;;;;;;;4.67;1.77;;;;;;;;;;4996905;28;20109;-76
2021/08/07 12:56:45;;;;;;;6.10;2.08;;;;;;;;;;5013309;28;20026;-77
2021/08/07 12:59:10;;;;;;;3.78;1.70;;;;;;;;;;5004421;28;20022;-77
2021/08/07 13:01:37;;;;;;;4.43;2.13;;;;;;;;;;5002804;28;20052;-77
2021/08/07 13:04:08;;;;;;;5.60;2.28;;;;;;;;;;5004490;28;20453;-76
2021/08/07 13:06:35;;;;;;;6.13;2.40;;;;;;;;;;4977639;28;20445;-78
2021/08/07 13:09:23;;;;;;;5.80;2.60;;;;;;;;;;4990012;28;20057;-76
2021/08/07 13:12:07;;;;;;;4.53;2.17;;;;;;;;;;5006409;28;20031;-76
2021/08/07 13:14:33;;;;;;;8.02;2.40;;;;;;;;;;4988221;28;20042;-76
2021/08/07 13:16:58;;;;;;;4.15;2.05;;;;;;;;;;4993460;28;20038;-76
2021/08/07 13:19:30;;;;;;;4.47;2.20;;;;;;;;;;4993283;28;20038;-76
2021/08/07 13:22:07;;;;;;;5.05;1.95;;;;;;;;;;5009145;28;20033;-76
2021/08/07 13:24:37;;;;;;;5.10;2.20;;;;;;;;;;5003340;28;20022;-76
2021/08/07 13:27:04;;;;;;;5.32;2.00;;;;;;;;;;4957642;28;20034;-76
2021/08/07 13:29:30;;;;;;;4.53;2.00;;;;;;;;;;4983016;28;20023;-76
2021/08/07 13:31:55;;;;;;;4.73;1.97;;;;;;;;;;4973617;28;20082;-76
2021/08/07 13:34:23;;;;;;;3.87;2.00;;;;;;;;;;4985193;28;20030;-76
2021/08/07 13:36:48;;;;;;;4.30;2.00;;;;;;;;;;5012655;28;20137;-76
2021/08/07 13:39:14;;;;;;;6.30;2.10;;;;;;;;;;5029241;28;20536;-76
2021/08/07 13:41:40;;;;;;;4.80;2.13;;;;;;;;;;4991271;28;20065;-76
2021/08/07 13:44:06;;;;;;;4.60;2.10;;;;;;;;;;4970552;28;20081;-76
2021/08/07 13:46:31;;;;;;;3.20;1.90;;;;;;;;;;5029000;28;20440;-76
2021/08/07 13:48:56;;;;;;;4.30;2.10;;;;;;;;;;4994060;28;20033;-76
2021/08/07 13:51:22;;;;;;;4.37;2.00;;;;;;;;;;5012566;28;20117;-76
2021/08/07 13:53:48;;;;;;;4.18;1.92;;;;;;;;;;5008934;28;20113;-76
2021/08/07 13:56:14;;;;;;;4.33;1.70;;;;;;;;;;4992848;28;20042;-76
2021/08/07 13:58:39;;;;;;;4.75;1.83;;;;;;;;;;4999497;28;20112;-76
2021/08/07 14:01:05;;;;;;;3.73;1.90;;;;;;;;;;5012207;28;20112;-76
2021/08/07 14:03:30;;;;;;;4.35;1.95;;;;;;;;;;5010960;28;20030;-76
2021/08/07 14:05:56;;;;;;;4.13;1.80;;;;;;;;;;4992584;28;20452;-76
2021/08/07 14:08:21;;;;;;;4.07;1.80;;;;;;;;;;4992625;28;20170;-76
2021/08/07 14:10:46;;;;;;;5.10;1.90;;;;;;;;;;4993768;28;20018;-76
2021/08/07 14:13:12;;;;;;;6.77;2.30;;;;;;;;;;5012058;28;20438;-76
2021/08/07 14:15:37;;;;;;;4.20;1.87;;;;;;;;;;5000199;28;20030;-76
2021/08/07 14:18:05;;;;;;;4.37;2.00;;;;;;;;;;4999021;28;20080;-76
2021/08/07 14:20:32;;;;;;;5.68;2.15;;;;;;;;;;5001085;28;20491;-76
2021/08/07 14:22:57;;;;;;;;;;;;;;;;;;5000590;28;20034;-76
2021/08/07 14:25:22;;;;;;;4.33;1.97;;;;;;;;;;5017901;28;19914;-76
2021/08/07 14:27:48;;;;;;;4.70;1.90;;;;;;;;;;5024008;28;20022;-76
2021/08/07 14:30:13;;;;;;;3.87;1.67;;;;;;;;;;5011466;28;20129;-76
2021/08/07 14:32:38;;;;;;;4.97;1.93;;;;;;;;;;5023688;28;20156;-76
2021/08/07 14:35:04;;;;;;;6.17;1.90;;;;;;;;;;5002002;28;20152;-76
2021/08/07 14:37:29;;;;;;;4.63;1.97;;;;;;;;;;5004851;28;20370;-76
2021/08/07 14:39:55;;;;;;;4.50;2.07;;;;;;;;;;5006889;28;20101;-75
2021/08/07 14:42:20;;;;;;;4.57;1.90;;;;;;;;;;5005590;28;20022;-76